Time;durP1;ratioP1;P1;durP2;ratioP2;P2;SDS_P1;SDS_P2;PMS_P1;PMS_P2;Temp;Humidity;BMP_temperature;BMP_pressure;BME280_temperature;BME280_humidity;BME280_pressure;Samples;Min_cycle;Max_cycle;Signal;HPM_P1;HPM_P2
2021/10/30 00:01:13;;;;;;;7.40;6.63;;;6.20;99.90;;;;;;5041717;28;20165;-64
2021/10/30 00:03:38;;;;;;;6.67;6.07;;;6.10;99.90;;;;;;5041592;28;20170;-64
2021/10/30 00:06:04;;;;;;;11.17;6.80;;;6.10;99.90;;;;;;5042053;28;20170;-64
2021/10/30 00:08:30;;;;;;;9.60;5.50;;;6.00;99.90;;;;;;5041430;28;20246;-65
2021/10/30 00:10:57;;;;;;;4.80;4.37;;;6.00;99.90;;;;;;5041738;28;20187;-65
2021/10/30 00:13:23;;;;;;;6.72;5.07;;;5.90;99.90;;;;;;5038833;28;20242;-64
2021/10/30 00:15:49;;;;;;;8.43;5.90;;;5.90;99.90;;;;;;5036592;28;20183;-64
2021/10/30 00:18:15;;;;;;;9.07;5.43;;;5.90;99.90;;;;;;5035282;28;20430;-64
2021/10/30 00:20:40;;;;;;;5.63;5.13;;;5.80;99.90;;;;;;5035855;28;20179;-63
2021/10/30 00:23:06;;;;;;;9.20;5.80;;;5.80;99.90;;;;;;5035573;28;20179;-64
2021/10/30 00:25:32;;;;;;;8.70;5.87;;;5.90;99.90;;;;;;5035749;28;20565;-64
2021/10/30 00:27:57;;;;;;;8.50;7.80;;;5.90;99.90;;;;;;5035262;28;20191;-64
2021/10/30 00:30:23;;;;;;;8.93;5.80;;;5.80;99.90;;;;;;5035434;28;20298;-64
2021/10/30 00:32:49;;;;;;;7.60;6.40;;;5.90;99.90;;;;;;5035382;28;20190;-64
2021/10/30 00:35:14;;;;;;;7.57;4.40;;;5.80;99.90;;;;;;5035292;28;20166;-64
2021/10/30 00:37:40;;;;;;;6.97;6.27;;;5.80;99.90;;;;;;5034951;28;20273;-64
2021/10/30 00:40:07;;;;;;;9.37;5.27;;;5.80;99.90;;;;;;5035366;28;20166;-65
2021/10/30 00:42:33;;;;;;;13.35;7.20;;;5.70;99.90;;;;;;5035324;28;20167;-65
2021/10/30 00:44:58;;;;;;;7.22;6.35;;;5.70;99.90;;;;;;5035373;28;20175;-65
2021/10/30 00:47:24;;;;;;;7.60;4.93;;;5.70;99.90;;;;;;5034895;28;20202;-63
2021/10/30 00:49:50;;;;;;;7.97;6.37;;;5.70;99.90;;;;;;5034887;28;20172;-64
2021/10/30 00:52:18;;;;;;;6.33;5.40;;;5.70;99.90;;;;;;5035034;28;20212;-65
2021/10/30 00:54:44;;;;;;;9.98;6.85;;;5.70;99.90;;;;;;5035150;28;20811;-64
2021/10/30 00:57:11;;;;;;;7.40;5.72;;;5.70;99.90;;;;;;5034608;28;20194;-64
2021/10/30 00:59:36;;;;;;;8.68;7.80;;;5.80;99.90;;;;;;5034920;28;20171;-64
2021/10/30 01:02:03;;;;;;;10.83;5.77;;;5.70;99.90;;;;;;5034805;28;20176;-64
2021/10/30 01:04:29;;;;;;;11.15;5.40;;;5.70;99.90;;;;;;5034685;28;20175;-63
2021/10/30 01:06:56;;;;;;;4.85;4.45;;;5.70;99.90;;;;;;5034307;28;20186;-64
2021/10/30 01:09:22;;;;;;;11.23;6.07;;;5.70;99.90;;;;;;5034236;28;20202;-64
2021/10/30 01:11:48;;;;;;;12.57;5.80;;;5.70;99.90;;;;;;5034636;28;20746;-64
2021/10/30 01:14:14;;;;;;;10.43;6.85;;;5.70;99.90;;;;;;5034679;28;20162;-64
2021/10/30 01:16:40;;;;;;;7.25;6.00;;;5.60;99.90;;;;;;5034240;28;20202;-64
2021/10/30 01:19:06;;;;;;;5.83;4.80;;;5.70;99.90;;;;;;5034538;28;20203;-63
2021/10/30 01:21:35;;;;;;;6.78;5.47;;;5.60;99.90;;;;;;5034322;28;20405;-64
2021/10/30 01:24:06;;;;;;;8.68;5.47;;;5.60;99.90;;;;;;5034629;28;20550;-63
2021/10/30 01:26:32;;;;;;;8.23;5.60;;;5.60;99.90;;;;;;5034189;28;20638;-64
2021/10/30 01:29:00;;;;;;;7.30;5.80;;;5.50;99.90;;;;;;5034335;28;20285;-64
2021/10/30 01:31:26;;;;;;;8.20;6.07;;;5.50;99.90;;;;;;5034081;28;20421;-64
2021/10/30 01:33:52;;;;;;;3.33;2.97;;;5.50;99.90;;;;;;5034154;28;20193;-64
2021/10/30 01:36:20;;;;;;;6.43;5.60;;;5.50;99.90;;;;;;5033844;28;20247;-64
2021/10/30 01:38:47;;;;;;;9.00;5.78;;;5.40;99.90;;;;;;5034215;28;20252;-64
2021/10/30 01:41:13;;;;;;;6.43;5.55;;;5.40;99.90;;;;;;5034203;28;20575;-64
2021/10/30 01:43:39;;;;;;;8.70;7.28;;;5.40;99.90;;;;;;5033938;28;20178;-64
2021/10/30 01:46:05;;;;;;;9.48;6.68;;;5.40;99.90;;;;;;5034224;28;20253;-64
2021/10/30 01:48:34;;;;;;;6.82;5.63;;;5.40;99.90;;;;;;5033569;28;20293;-64
2021/10/30 01:51:00;;;;;;;8.68;6.07;;;5.30;99.90;;;;;;5034010;28;20170;-64
2021/10/30 01:53:26;;;;;;;5.25;4.57;;;5.30;99.90;;;;;;5033778;28;20231;-64
2021/10/30 01:55:51;;;;;;;7.03;6.33;;;5.30;99.90;;;;;;5033748;28;20203;-64
2021/10/30 01:58:17;;;;;;;7.90;5.17;;;5.30;99.90;;;;;;5033177;28;20237;-64
2021/10/30 02:00:45;;;;;;;8.70;5.82;;;5.30;99.90;;;;;;5033718;28;20174;-64
2021/10/30 02:03:11;;;;;;;9.13;6.22;;;5.20;99.90;;;;;;5034200;28;20163;-64
2021/10/30 02:05:36;;;;;;;10.30;5.20;;;5.20;99.90;;;;;;5033831;28;20166;-64
2021/10/30 02:08:03;;;;;;;9.63;6.43;;;5.20;99.90;;;;;;5033414;28;20220;-64
2021/10/30 02:10:28;;;;;;;9.40;6.72;;;5.10;99.90;;;;;;5033449;28;20629;-64
2021/10/30 02:12:55;;;;;;;7.83;7.03;;;5.10;99.90;;;;;;5033633;28;20225;-64
2021/10/30 02:15:21;;;;;;;5.72;4.63;;;5.10;99.90;;;;;;5032076;28;20272;-65
2021/10/30 02:17:46;;;;;;;8.53;5.73;;;5.10;99.90;;;;;;5033276;28;20682;-64
2021/10/30 02:20:13;;;;;;;8.03;7.23;;;5.10;99.90;;;;;;5032982;28;20449;-64
2021/10/30 02:22:39;;;;;;;5.53;4.10;;;5.10;99.90;;;;;;5033408;28;20232;-64
2021/10/30 02:25:09;;;;;;;5.45;4.95;;;5.10;99.90;;;;;;5033563;28;20629;-64
2021/10/30 02:27:35;;;;;;;5.38;4.60;;;5.10;99.90;;;;;;5033068;28;20193;-64
2021/10/30 02:30:02;;;;;;;5.53;4.60;;;5.10;99.90;;;;;;5033324;28;20170;-64
2021/10/30 02:32:28;;;;;;;5.78;4.38;;;5.00;99.90;;;;;;5031960;28;20289;-64
2021/10/30 02:34:53;;;;;;;8.70;7.00;;;5.00;99.90;;;;;;5032053;28;20266;-64
2021/10/30 02:37:19;;;;;;;7.70;5.13;;;5.00;99.90;;;;;;5032941;28;20252;-65
2021/10/30 02:39:45;;;;;;;7.83;6.20;;;5.00;99.90;;;;;;5033357;28;20702;-64
2021/10/30 02:42:11;;;;;;;5.23;4.77;;;5.00;99.90;;;;;;5031992;28;20181;-64
2021/10/30 02:44:37;;;;;;;9.60;5.40;;;5.00;99.90;;;;;;5033037;28;20178;-65
2021/10/30 02:47:03;;;;;;;6.23;4.50;;;5.00;99.90;;;;;;5032780;28;20166;-64
2021/10/30 02:49:30;;;;;;;6.78;5.53;;;5.00;99.90;;;;;;5033028;28;20241;-64
2021/10/30 02:51:55;;;;;;;5.32;4.80;;;4.90;99.90;;;;;;5032946;28;20202;-64
2021/10/30 02:54:21;;;;;;;6.33;5.70;;;4.90;99.90;;;;;;5033134;28;20693;-64
2021/10/30 02:56:47;;;;;;;6.70;4.70;;;4.90;99.90;;;;;;5032971;28;20519;-64
2021/10/30 02:59:13;;;;;;;7.40;5.07;;;4.80;99.90;;;;;;5033039;28;20190;-64
2021/10/30 03:01:39;;;;;;;5.90;5.27;;;4.80;99.90;;;;;;5033047;28;20177;-64
2021/10/30 03:04:05;;;;;;;7.77;5.23;;;4.80;99.90;;;;;;5033142;28;20176;-64
2021/10/30 03:06:31;;;;;;;8.90;5.67;;;4.80;99.90;;;;;;5031281;28;20201;-64
2021/10/30 03:08:57;;;;;;;5.57;4.45;;;4.80;99.90;;;;;;5032882;28;20558;-64
2021/10/30 03:11:23;;;;;;;5.93;4.43;;;4.70;99.90;;;;;;5032805;28;20170;-64
2021/10/30 03:13:49;;;;;;;6.30;4.80;;;4.70;99.90;;;;;;5032944;28;20580;-64
2021/10/30 03:16:14;;;;;;;6.93;5.03;;;4.70;99.90;;;;;;5032702;28;20428;-64
2021/10/30 03:18:40;;;;;;;6.47;5.93;;;4.60;99.90;;;;;;5032852;28;20186;-64
2021/10/30 03:21:06;;;;;;;4.87;4.00;;;4.60;99.90;;;;;;5032919;28;20174;-64
2021/10/30 03:23:32;;;;;;;6.93;4.22;;;4.60;99.90;;;;;;5032799;28;20179;-63
2021/10/30 03:25:58;;;;;;;8.10;5.47;;;4.50;99.90;;;;;;5015402;28;20167;-64
2021/10/30 03:28:23;;;;;;;6.27;5.30;;;4.50;99.90;;;;;;5032239;28;20470;-64
2021/10/30 03:30:49;;;;;;;6.40;4.63;;;4.50;99.90;;;;;;5032615;28;20185;-64
2021/10/30 03:33:15;;;;;;;5.50;4.87;;;4.40;99.90;;;;;;5035844;28;20206;-63
2021/10/30 03:35:40;;;;;;;9.23;4.90;;;4.40;99.90;;;;;;5036518;28;20174;-64
2021/10/30 03:38:06;;;;;;;5.17;4.03;;;4.40;99.90;;;;;;5035908;28;20198;-65
2021/10/30 03:40:32;;;;;;;5.43;4.93;;;4.30;99.90;;;;;;5036255;28;20167;-64
2021/10/30 03:42:57;;;;;;;7.47;6.50;;;4.30;99.90;;;;;;5036361;28;20174;-64
2021/10/30 03:45:24;;;;;;;7.67;6.43;;;4.30;99.90;;;;;;5036403;28;20170;-63
2021/10/30 03:47:50;;;;;;;12.43;6.03;;;4.30;99.90;;;;;;5035967;28;20213;-63
2021/10/30 03:50:15;;;;;;;9.20;6.30;;;4.30;99.90;;;;;;5035990;28;20174;-64
2021/10/30 03:52:41;;;;;;;5.67;5.17;;;4.30;99.90;;;;;;5036168;28;20332;-64
2021/10/30 03:55:07;;;;;;;5.63;5.13;;;4.30;99.90;;;;;;5036255;28;20264;-65
2021/10/30 03:57:33;;;;;;;7.35;5.57;;;4.30;99.90;;;;;;5035762;28;20194;-64
2021/10/30 03:59:59;;;;;;;9.00;5.20;;;4.20;99.90;;;;;;5036052;28;20170;-64
2021/10/30 04:02:25;;;;;;;8.80;6.93;;;4.20;99.90;;;;;;5036157;28;20593;-64
2021/10/30 04:04:51;;;;;;;9.35;7.85;;;4.20;99.90;;;;;;5036116;28;20444;-64
2021/10/30 04:07:17;;;;;;;8.80;5.60;;;4.20;99.90;;;;;;5035534;28;20688;-64
2021/10/30 04:09:44;;;;;;;5.50;3.95;;;4.10;99.90;;;;;;5035664;28;20332;-64
2021/10/30 04:12:10;;;;;;;6.30;5.00;;;4.10;99.90;;;;;;5035500;28;20198;-64
2021/10/30 04:14:36;;;;;;;6.97;4.85;;;4.10;99.90;;;;;;5035818;28;20236;-63
2021/10/30 04:17:03;;;;;;;6.28;5.57;;;4.10;99.90;;;;;;5033952;28;20190;-63
2021/10/30 04:19:29;;;;;;;8.68;4.57;;;4.00;99.90;;;;;;5035582;28;20218;-64
2021/10/30 04:21:54;;;;;;;9.25;5.90;;;4.00;99.90;;;;;;5035672;28;20166;-65
2021/10/30 04:24:20;;;;;;;6.60;4.63;;;4.00;99.90;;;;;;5035716;28;20243;-63
2021/10/30 04:26:46;;;;;;;5.23;4.00;;;4.00;99.90;;;;;;5035244;28;20601;-63
2021/10/30 04:29:11;;;;;;;8.63;4.90;;;3.90;99.90;;;;;;5035397;28;20236;-64
2021/10/30 04:31:37;;;;;;;5.20;4.80;;;3.80;99.90;;;;;;5035419;28;20177;-65
2021/10/30 04:34:07;;;;;;;6.73;5.83;;;3.80;99.90;;;;;;5017555;28;20324;-64
2021/10/30 04:36:35;;;;;;;9.88;5.85;;;3.80;99.90;;;;;;5035093;28;20170;-64
2021/10/30 04:39:02;;;;;;;6.60;5.95;;;3.70;99.90;;;;;;5035330;28;20691;-64
2021/10/30 04:41:28;;;;;;;9.07;5.88;;;3.70;99.90;;;;;;5035328;28;20174;-64
2021/10/30 04:43:54;;;;;;;4.97;4.50;;;3.80;99.90;;;;;;5034797;28;20174;-64
2021/10/30 04:46:22;;;;;;;7.38;5.70;;;3.80;99.90;;;;;;5034794;28;20182;-64
2021/10/30 04:48:48;;;;;;;7.10;5.25;;;3.80;99.90;;;;;;5034882;28;20198;-64
2021/10/30 04:51:15;;;;;;;6.65;4.88;;;3.90;99.90;;;;;;5035078;28;20185;-64
2021/10/30 04:53:44;;;;;;;8.30;6.10;;;4.00;99.90;;;;;;5034845;28;20251;-64
2021/10/30 04:56:11;;;;;;;7.97;6.70;;;4.00;99.90;;;;;;5034984;28;20527;-64
2021/10/30 04:58:43;;;;;;;6.40;5.10;;;4.00;99.90;;;;;;5034380;28;20194;-65
2021/10/30 05:01:10;;;;;;;7.97;6.13;;;4.10;99.90;;;;;;5035003;28;20228;-64
2021/10/30 05:03:35;;;;;;;6.43;5.15;;;4.10;99.90;;;;;;5034796;28;20263;-63
2021/10/30 05:06:01;;;;;;;6.37;4.80;;;4.10;99.90;;;;;;5034756;28;20627;-65
2021/10/30 05:08:26;;;;;;;5.83;4.73;;;4.10;99.90;;;;;;5034359;28;20268;-65
2021/10/30 05:10:52;;;;;;;5.07;4.57;;;4.10;99.90;;;;;;5035068;28;20174;-64
2021/10/30 05:13:18;;;;;;;5.23;3.27;;;4.10;99.90;;;;;;5034677;28;20213;-64
2021/10/30 05:15:44;;;;;;;12.00;5.10;;;4.00;99.90;;;;;;5034541;28;20205;-64
2021/10/30 05:18:09;;;;;;;5.10;4.32;;;4.00;99.90;;;;;;5034053;28;20240;-64
2021/10/30 05:20:35;;;;;;;8.00;5.17;;;3.90;99.90;;;;;;5034344;28;20235;-64
2021/10/30 05:23:00;;;;;;;8.90;4.53;;;3.90;99.90;;;;;;5034500;28;20170;-64
2021/10/30 05:25:26;;;;;;;5.87;3.90;;;3.90;99.90;;;;;;5034424;28;20170;-64
2021/10/30 05:27:52;;;;;;;13.23;4.80;;;3.80;99.90;;;;;;5034094;28;20558;-64
2021/10/30 05:30:18;;;;;;;4.33;3.73;;;3.80;99.90;;;;;;5034514;28;20968;-64
2021/10/30 05:32:43;;;;;;;6.50;4.63;;;3.80;99.90;;;;;;5034222;28;20229;-63
2021/10/30 05:35:09;;;;;;;5.10;4.60;;;3.80;99.90;;;;;;5034264;28;20170;-64
2021/10/30 05:37:35;;;;;;;4.80;3.87;;;3.80;99.90;;;;;;5033774;28;20244;-64
2021/10/30 05:40:03;;;;;;;5.97;5.33;;;3.80;99.90;;;;;;5034168;28;20544;-64
2021/10/30 05:42:28;;;;;;;6.60;5.90;;;3.80;99.90;;;;;;5034020;28;20659;-63
2021/10/30 05:44:54;;;;;;;5.67;4.43;;;3.80;99.90;;;;;;5034260;28;20252;-64
2021/10/30 05:47:19;;;;;;;4.67;4.17;;;3.80;99.90;;;;;;5033656;28;20257;-63
2021/10/30 05:49:46;;;;;;;5.40;4.03;;;3.80;99.90;;;;;;5034106;28;20253;-63
2021/10/30 05:52:12;;;;;;;4.93;4.53;;;3.80;99.90;;;;;;5033961;28;20275;-64
2021/10/30 05:54:39;;;;;;;4.05;3.33;;;3.80;99.90;;;;;;5033741;28;20708;-64
2021/10/30 05:57:09;;;;;;;8.18;5.97;;;3.80;99.90;;;;;;5032862;28;20174;-64
2021/10/30 05:59:34;;;;;;;6.18;4.65;;;3.80;99.90;;;;;;5033738;28;20253;-64
2021/10/30 06:02:00;;;;;;;10.97;5.13;;;3.90;99.90;;;;;;5032526;28;20209;-64
2021/10/30 06:04:25;;;;;;;6.17;5.20;;;3.90;99.90;;;;;;5033609;28;20638;-64
2021/10/30 06:06:51;;;;;;;9.30;4.77;;;3.90;99.90;;;;;;5033547;28;20244;-64
2021/10/30 06:09:18;;;;;;;5.37;4.73;;;3.90;99.90;;;;;;5033564;28;20178;-64
2021/10/30 06:11:43;;;;;;;16.50;4.60;;;3.90;99.90;;;;;;5033630;28;20185;-64
2021/10/30 06:14:10;;;;;;;8.87;6.57;;;3.90;99.90;;;;;;5033467;28;20578;-63
2021/10/30 06:16:37;;;;;;;7.93;5.35;;;3.90;99.90;;;;;;5032994;28;20429;-64
2021/10/30 06:19:04;;;;;;;6.80;5.40;;;3.90;99.90;;;;;;5033273;28;20190;-63
2021/10/30 06:21:29;;;;;;;10.95;5.88;;;3.90;99.90;;;;;;5033184;28;20631;-64
2021/10/30 06:23:59;;;;;;;10.33;5.70;;;3.90;99.90;;;;;;5033398;28;20189;-65
2021/10/30 06:26:26;;;;;;;10.70;5.05;;;4.00;99.90;;;;;;5032862;28;20174;-64
2021/10/30 06:28:53;;;;;;;5.18;4.70;;;4.00;99.90;;;;;;5033321;28;20189;-65
2021/10/30 06:31:20;;;;;;;10.27;5.57;;;4.10;99.90;;;;;;5033366;28;20205;-65
2021/10/30 06:33:45;;;;;;;9.23;6.35;;;4.10;99.90;;;;;;5033220;28;20210;-64
2021/10/30 06:36:11;;;;;;;8.97;6.17;;;4.10;99.90;;;;;;5033120;28;20236;-65
2021/10/30 06:38:37;;;;;;;4.10;3.77;;;4.20;99.90;;;;;;5031622;28;20190;-63
2021/10/30 06:41:06;;;;;;;7.47;4.65;;;4.20;99.90;;;;;;5033167;28;20196;-63
2021/10/30 06:43:32;;;;;;;8.93;6.43;;;4.20;99.90;;;;;;5033228;28;20549;-64
2021/10/30 06:45:58;;;;;;;9.02;6.28;;;4.20;99.90;;;;;;5033009;28;20276;-63
2021/10/30 06:48:26;;;;;;;8.60;5.30;;;4.30;99.90;;;;;;5032714;28;20229;-65
2021/10/30 06:50:53;;;;;;;9.52;6.30;;;4.30;99.90;;;;;;5033175;28;20409;-64
2021/10/30 06:53:20;;;;;;;10.35;4.80;;;4.30;99.90;;;;;;5032981;28;20703;-64
2021/10/30 06:55:48;;;;;;;8.82;5.97;;;4.40;99.90;;;;;;5032967;28;20647;-64
2021/10/30 06:58:16;;;;;;;6.43;5.32;;;4.40;99.90;;;;;;5032510;28;20720;-64
2021/10/30 07:00:42;;;;;;;9.50;5.68;;;4.50;99.90;;;;;;5032962;28;20170;-65
2021/10/30 07:03:08;;;;;;;5.68;4.10;;;4.70;99.90;;;;;;5032974;28;20167;-65
2021/10/30 07:05:34;;;;;;;11.88;7.47;;;4.90;99.90;;;;;;5032994;28;20171;-64
2021/10/30 07:08:00;;;;;;;12.60;7.57;;;5.10;99.90;;;;;;5035670;28;20186;-64
2021/10/30 07:10:25;;;;;;;8.43;5.53;;;5.30;99.90;;;;;;5037111;28;20549;-64
2021/10/30 07:12:51;;;;;;;8.30;7.23;;;5.50;99.90;;;;;;5036985;28;20253;-64
2021/10/30 07:15:17;;;;;;;9.30;6.77;;;5.70;99.90;;;;;;5036646;28;20189;-65
2021/10/30 07:17:43;;;;;;;8.73;6.67;;;5.80;99.90;;;;;;5036714;28;20195;-65
2021/10/30 07:20:09;;;;;;;9.90;8.30;;;6.20;99.90;;;;;;5037026;28;20663;-64
2021/10/30 07:22:48;;;;;;;13.38;6.47;;;6.40;99.90;;;;;;5036831;28;20256;-64
2021/10/30 07:25:15;;;;;;;6.28;5.07;;;6.70;99.90;;;;;;5019111;28;20178;-65
2021/10/30 07:27:42;;;;;;;6.55;5.85;;;7.00;99.90;;;;;;5036349;28;20235;-64
2021/10/30 07:30:09;;;;;;;6.55;5.70;;;7.30;99.90;;;;;;5036491;28;20708;-64
2021/10/30 07:32:35;;;;;;;5.18;4.25;;;7.70;99.90;;;;;;5036390;28;20283;-65
2021/10/30 07:35:02;;;;;;;4.93;4.50;;;8.30;99.90;;;;;;5036690;28;20611;-64
2021/10/30 07:37:29;;;;;;;5.72;5.20;;;9.00;99.90;;;;;;5036094;28;20411;-66
2021/10/30 07:39:54;;;;;;;11.30;6.97;;;9.80;99.90;;;;;;5036513;28;20165;-65
2021/10/30 07:42:20;;;;;;;7.83;5.13;;;10.50;99.90;;;;;;5036182;28;20428;-65
2021/10/30 07:44:46;;;;;;;6.20;4.80;;;11.10;99.90;;;;;;5036486;28;20416;-64
2021/10/30 07:47:12;;;;;;;5.27;4.80;;;11.50;99.90;;;;;;5035747;28;20169;-66
2021/10/30 07:49:38;;;;;;;5.53;4.70;;;11.80;99.90;;;;;;5036188;28;20527;-66
2021/10/30 07:52:05;;;;;;;4.67;4.27;;;12.00;99.90;;;;;;5036026;28;20800;-67
2021/10/30 07:54:32;;;;;;;5.53;4.93;;;12.00;99.90;;;;;;5036057;28;20415;-65
2021/10/30 07:56:57;;;;;;;4.30;3.90;;;11.80;99.90;;;;;;5035834;28;20415;-66
2021/10/30 07:59:23;;;;;;;4.87;4.07;;;11.50;99.90;;;;;;5035760;28;20508;-65
2021/10/30 08:01:50;;;;;;;4.93;4.53;;;11.30;99.90;;;;;;5035941;28;20200;-65
2021/10/30 08:04:17;;;;;;;4.57;4.13;;;11.10;99.90;;;;;;5036051;28;20942;-65
2021/10/30 08:06:43;;;;;;;4.40;3.93;;;11.00;99.90;;;;;;5035643;28;20394;-65
2021/10/30 08:09:09;;;;;;;6.20;4.03;;;11.10;99.90;;;;;;5035578;28;20437;-65
2021/10/30 08:11:35;;;;;;;6.77;4.80;;;11.30;99.90;;;;;;5036015;28;20958;-65
2021/10/30 08:14:01;;;;;;;5.63;4.30;;;11.40;99.90;;;;;;5036235;28;20240;-65
2021/10/30 08:16:27;;;;;;;9.93;5.70;;;11.50;99.90;;;;;;5035302;28;20591;-65
2021/10/30 08:18:52;;;;;;;4.30;3.90;;;11.60;99.90;;;;;;5034611;28;20411;-66
2021/10/30 08:21:19;;;;;;;6.20;4.77;;;11.70;99.90;;;;;;5035748;28;20193;-65
2021/10/30 08:23:45;;;;;;;7.07;5.03;;;11.90;99.90;;;;;;5035425;28;20549;-66
2021/10/30 08:26:10;;;;;;;5.03;4.43;;;12.10;99.90;;;;;;5034883;28;20383;-66
2021/10/30 08:28:36;;;;;;;5.20;4.70;;;12.30;99.90;;;;;;5035123;28;20197;-65
2021/10/30 08:31:02;;;;;;;5.07;4.57;;;12.70;99.90;;;;;;5035473;28;20383;-66
2021/10/30 08:33:28;;;;;;;5.73;5.07;;;13.00;99.90;;;;;;5035399;28;20202;-65
2021/10/30 08:35:54;;;;;;;6.73;4.87;;;13.30;99.90;;;;;;5035388;28;20249;-66
2021/10/30 08:38:19;;;;;;;4.80;4.40;;;13.40;99.90;;;;;;5034814;28;20432;-66
2021/10/30 08:40:45;;;;;;;4.70;3.67;;;13.30;99.90;;;;;;5035565;28;20504;-66
2021/10/30 08:43:21;;;;;;;4.77;4.37;;;13.40;99.80;;;;;;5035357;28;20189;-66
2021/10/30 08:45:50;;;;;;;4.20;3.83;;;13.40;99.70;;;;;;5035415;28;20224;-65
2021/10/30 08:48:19;;;;;;;8.70;5.23;;;13.40;99.80;;;;;;5034722;28;20407;-65
2021/10/30 08:50:45;;;;;;;5.47;4.93;;;13.30;99.50;;;;;;5035069;28;20408;-66
2021/10/30 08:53:11;;;;;;;5.23;4.40;;;13.00;99.90;;;;;;5034734;28;20467;-65
2021/10/30 08:55:37;;;;;;;5.73;4.80;;;12.80;99.90;;;;;;5017294;28;20404;-66
2021/10/30 08:58:08;;;;;;;5.93;5.23;;;12.70;99.90;;;;;;5034555;28;20468;-65
2021/10/30 09:00:42;;;;;;;5.20;4.70;;;12.80;99.90;;;;;;5034698;28;20166;-66
2021/10/30 09:03:10;;;;;;;5.60;4.97;;;12.80;99.90;;;;;;5034792;28;20525;-66
2021/10/30 09:05:36;;;;;;;6.17;5.00;;;12.70;99.90;;;;;;5034556;28;20949;-65
2021/10/30 09:08:05;;;;;;;5.67;4.37;;;12.50;99.90;;;;;;5034310;28;20394;-65
2021/10/30 09:10:38;;;;;;;5.67;4.57;;;12.50;99.90;;;;;;5034495;28;20519;-66
2021/10/30 09:13:06;;;;;;;6.40;5.27;;;12.60;99.90;;;;;;5034656;28;20475;-64
2021/10/30 09:15:48;;;;;;;3.90;3.60;;;12.70;99.90;;;;;;5034513;28;20466;-65
2021/10/30 09:18:32;;;;;;;6.37;4.50;;;12.90;99.90;;;;;;5034449;28;20403;-65
2021/10/30 09:21:04;;;;;;;4.93;4.37;;;13.10;99.90;;;;;;5034478;28;20413;-65
2021/10/30 09:23:31;;;;;;;4.33;4.03;;;13.30;99.90;;;;;;5034398;28;20404;-65
2021/10/30 09:26:01;;;;;;;5.97;5.37;;;13.40;99.90;;;;;;5034420;28;20418;-64
2021/10/30 09:28:38;;;;;;;5.60;4.63;;;13.30;99.90;;;;;;5033929;28;20490;-64
2021/10/30 09:31:09;;;;;;;6.70;4.50;;;13.10;99.90;;;;;;5032748;28;20436;-65
2021/10/30 09:33:47;;;;;;;4.90;4.47;;;12.90;99.90;;;;;;5034225;28;20439;-65
2021/10/30 09:36:14;;;;;;;6.47;5.90;;;12.70;99.90;;;;;;5034188;28;20409;-65
2021/10/30 09:38:41;;;;;;;5.77;5.00;;;12.50;99.90;;;;;;5033728;28;20543;-65
2021/10/30 09:41:35;;;;;;;5.00;4.50;;;12.30;99.90;;;;;;5034350;28;20453;-65
2021/10/30 09:44:07;;;;;;;6.10;5.50;;;12.20;99.90;;;;;;5034056;28;20443;-65
2021/10/30 09:46:51;;;;;;;5.53;4.83;;;12.10;99.90;;;;;;5033782;28;20902;-65
2021/10/30 09:49:26;;;;;;;6.13;5.47;;;12.00;99.90;;;;;;5033849;28;20489;-65
2021/10/30 09:52:19;;;;;;;6.20;5.03;;;11.90;99.90;;;;;;5034146;28;20434;-65
2021/10/30 09:54:46;;;;;;;6.50;5.47;;;11.70;99.90;;;;;;5034052;28;20408;-64
2021/10/30 09:57:24;;;;;;;6.27;4.70;;;11.60;99.90;;;;;;5033353;28;20434;-65
2021/10/30 09:59:51;;;;;;;7.07;5.43;;;11.50;99.90;;;;;;5034241;28;20384;-65
2021/10/30 10:02:18;;;;;;;8.20;6.40;;;11.40;99.90;;;;;;5033727;28;20426;-65
2021/10/30 10:04:46;;;;;;;8.13;6.20;;;11.30;99.90;;;;;;5033801;28;20439;-64
2021/10/30 10:07:13;;;;;;;9.00;6.90;;;11.20;99.90;;;;;;5033365;28;20505;-65
2021/10/30 10:09:39;;;;;;;7.40;6.67;;;11.00;99.90;;;;;;5033740;28;20440;-64
2021/10/30 10:12:06;;;;;;;8.63;7.77;;;11.00;99.90;;;;;;5033702;28;21030;-65
2021/10/30 10:14:34;;;;;;;9.47;6.60;;;10.90;99.90;;;;;;5033715;28;20197;-65
2021/10/30 10:17:00;;;;;;;6.47;5.88;;;10.90;99.90;;;;;;5033048;28;20479;-65
2021/10/30 10:19:25;;;;;;;7.87;6.17;;;10.80;99.90;;;;;;5033547;28;20191;-64
2021/10/30 10:21:53;;;;;;;9.33;6.60;;;10.70;99.90;;;;;;5033787;28;20170;-65
2021/10/30 10:24:26;;;;;;;7.60;6.32;;;10.60;99.90;;;;;;5033532;28;20170;-64
2021/10/30 10:26:54;;;;;;;12.23;8.50;;;10.60;99.90;;;;;;5033211;28;20205;-65
2021/10/30 10:29:41;;;;;;;11.20;7.93;;;10.60;99.90;;;;;;5033467;28;20195;-64
2021/10/30 10:32:09;;;;;;;8.15;6.55;;;10.60;99.90;;;;;;5033490;28;20173;-65
2021/10/30 10:34:37;;;;;;;8.93;6.60;;;10.60;99.90;;;;;;5033819;28;20170;-64
2021/10/30 10:37:12;;;;;;;6.82;6.05;;;10.60;99.90;;;;;;5033745;28;20181;-65
2021/10/30 10:39:45;;;;;;;8.38;6.35;;;10.60;99.90;;;;;;5033833;28;20162;-65
2021/10/30 10:42:33;;;;;;;9.38;8.38;;;10.60;99.90;;;;;;5015695;28;20181;-64
2021/10/30 10:44:59;;;;;;;36.53;19.42;;;10.50;99.90;;;;;;5023174;28;20542;-65
2021/10/30 10:47:41;;;;;;;9.02;7.90;;;10.40;99.90;;;;;;5033439;28;20186;-64
2021/10/30 10:50:25;;;;;;;8.75;7.20;;;10.40;99.90;;;;;;5033796;28;20559;-65
2021/10/30 10:53:08;;;;;;;11.07;8.15;;;10.50;99.90;;;;;;5034811;28;20193;-65
2021/10/30 10:55:37;;;;;;;6.95;6.25;;;10.50;99.90;;;;;;5036353;28;20201;-64
2021/10/30 10:58:07;;;;;;;7.20;6.25;;;10.40;99.90;;;;;;5034976;28;20186;-64
2021/10/30 11:00:34;;;;;;;6.53;5.15;;;10.40;99.90;;;;;;5034211;28;20594;-64
2021/10/30 11:03:00;;;;;;;5.93;5.32;;;10.50;99.90;;;;;;5034448;28;20177;-64
2021/10/30 11:05:35;;;;;;;10.00;5.25;;;10.50;99.90;;;;;;5033580;28;20646;-64
2021/10/30 11:08:09;;;;;;;8.55;6.00;;;10.60;99.90;;;;;;5032589;28;20186;-64
2021/10/30 11:10:44;;;;;;;6.95;6.35;;;10.60;99.90;;;;;;5032824;28;20170;-66
2021/10/30 11:13:12;;;;;;;6.88;6.18;;;10.60;99.90;;;;;;5032931;28;20562;-64
2021/10/30 11:15:48;;;;;;;7.97;6.55;;;10.50;99.90;;;;;;5032659;28;20193;-64
2021/10/30 11:21:26;;;;;;;9.45;6.63;;;10.60;99.90;;;;;;5033471;28;20171;-65
2021/10/30 11:23:54;;;;;;;8.95;5.72;;;10.60;99.90;;;;;;5032893;28;20269;-64
2021/10/30 11:26:29;;;;;;;10.10;7.53;;;10.60;99.90;;;;;;5032650;28;20175;-64
2021/10/30 11:29:04;;;;;;;8.13;6.25;;;10.60;99.90;;;;;;5031371;28;20274;-64
2021/10/30 11:31:30;;;;;;;7.72;6.70;;;10.50;99.90;;;;;;5032833;28;20207;-64
2021/10/30 11:34:01;;;;;;;8.75;7.35;;;10.50;99.90;;;;;;5032509;28;20228;-64
2021/10/30 11:36:28;;;;;;;7.40;5.88;;;10.60;99.90;;;;;;5032541;28;20253;-65
2021/10/30 11:38:56;;;;;;;19.08;8.45;;;10.60;99.90;;;;;;5032719;28;20202;-66
2021/10/30 11:41:27;;;;;;;8.57;7.75;;;10.60;99.90;;;;;;5032765;28;20166;-64
2021/10/30 11:44:04;;;;;;;7.25;6.60;;;10.60;99.90;;;;;;5032799;28;20523;-64
2021/10/30 11:46:31;;;;;;;8.60;7.40;;;10.60;99.90;;;;;;5032481;28;20288;-64
2021/10/30 11:48:59;;;;;;;11.15;7.60;;;10.70;99.90;;;;;;5032283;28;20194;-64
2021/10/30 11:51:41;;;;;;;9.52;8.52;;;10.70;99.90;;;;;;5032732;28;20504;-64
2021/10/30 11:54:12;;;;;;;8.95;7.93;;;10.70;99.90;;;;;;5035127;28;20198;-64
2021/10/30 11:56:39;;;;;;;7.93;6.15;;;10.80;99.90;;;;;;5035735;28;20158;-64
2021/10/30 11:59:06;;;;;;;8.75;7.43;;;10.80;99.90;;;;;;5036102;28;20195;-65
2021/10/30 12:01:34;;;;;;;14.55;7.05;;;10.80;99.90;;;;;;5036526;28;20513;-64
2021/10/30 12:04:06;;;;;;;14.93;7.80;;;10.80;99.90;;;;;;5036047;28;20233;-65
2021/10/30 12:06:34;;;;;;;9.15;7.75;;;10.80;99.90;;;;;;5035666;28;20171;-64
2021/10/30 12:09:02;;;;;;;8.32;6.13;;;10.80;99.90;;;;;;5036041;28;20195;-64
2021/10/30 12:11:29;;;;;;;8.00;6.65;;;10.70;99.90;;;;;;5035937;28;20623;-64
2021/10/30 12:13:59;;;;;;;13.20;7.85;;;10.60;99.90;;;;;;5035583;28;20293;-64
2021/10/30 12:16:28;;;;;;;10.40;8.50;;;10.50;99.90;;;;;;5035464;28;20213;-64
2021/10/30 12:19:04;;;;;;;9.73;8.40;;;10.30;99.90;;;;;;5034717;28;20678;-65
2021/10/30 12:21:35;;;;;;;7.40;6.68;;;10.00;99.90;;;;;;5035887;28;20225;-64
2021/10/30 12:24:08;;;;;;;7.22;6.30;;;9.70;99.90;;;;;;5035859;28;20181;-64
2021/10/30 12:26:52;;;;;;;9.20;7.47;;;9.60;99.90;;;;;;5035508;28;20527;-64
2021/10/30 12:29:17;;;;;;;10.60;9.55;;;9.50;99.90;;;;;;5034213;28;20300;-64
2021/10/30 12:32:04;;;;;;;10.10;6.80;;;9.40;99.90;;;;;;5035658;28;20258;-64
2021/10/30 12:34:41;;;;;;;8.70;7.30;;;9.40;99.90;;;;;;5035599;28;20170;-64
2021/10/30 12:37:09;;;;;;;9.00;8.10;;;9.30;99.90;;;;;;5034988;28;20500;-65
2021/10/30 12:39:35;;;;;;;9.02;7.40;;;9.30;99.90;;;;;;5035433;28;20174;-64
2021/10/30 12:42:09;;;;;;;8.20;7.40;;;9.20;99.90;;;;;;5035029;28;20171;-65
2021/10/30 12:44:37;;;;;;;9.15;8.35;;;9.20;99.90;;;;;;5035383;28;20211;-64
2021/10/30 12:47:10;;;;;;;22.60;8.40;;;9.20;99.90;;;;;;5034921;28;20654;-64
2021/10/30 12:49:36;;;;;;;12.02;8.77;;;9.30;99.90;;;;;;5035373;28;20169;-64
2021/10/30 12:52:10;;;;;;;8.60;7.73;;;9.30;99.90;;;;;;5035144;28;20205;-63
2021/10/30 12:54:40;;;;;;;10.93;8.32;;;9.30;99.90;;;;;;5035437;28;20926;-64
2021/10/30 12:57:21;;;;;;;9.60;8.32;;;9.40;99.90;;;;;;5034858;28;20296;-64
2021/10/30 12:59:57;;;;;;;13.15;7.65;;;9.40;99.90;;;;;;5034906;28;20162;-64